createdAt,value
2023-01-17T00:00:58.516Z,5.59
2023-01-17T00:06:32.641Z,5.50
2023-01-17T00:11:35.101Z,5.49
2023-01-17T00:16:37.841Z,5.45
2023-01-17T00:22:06.304Z,5.40
2023-01-17T00:27:14.764Z,5.32
2023-01-17T00:32:17.791Z,5.29
2023-01-17T00:37:22.373Z,5.29
2023-01-17T00:42:24.894Z,5.28
2023-01-17T00:47:45.649Z,5.28
2023-01-17T00:53:07.032Z,5.20
2023-01-17T00:58:29.137Z,5.15
2023-01-17T01:03:50.068Z,5.11
2023-01-17T01:09:10.928Z,4.97
2023-01-17T01:14:34.806Z,4.83
2023-01-17T01:19:56.300Z,4.64
2023-01-17T01:25:23.788Z,4.50
2023-01-17T01:30:45.424Z,4.33
2023-01-17T01:35:55.407Z,4.19
2023-01-17T01:40:57.902Z,3.98
2023-01-17T01:46:00.204Z,3.87
2023-01-17T01:51:09.904Z,3.72
2023-01-17T01:56:15.607Z,3.68
2023-01-17T02:01:19.508Z,3.57
2023-01-17T02:06:34.140Z,3.53
2023-01-17T02:11:39.367Z,3.44
2023-01-17T02:17:03.919Z,3.44
2023-01-17T02:22:48.524Z,3.52
2023-01-17T02:27:54.641Z,3.61
2023-01-17T02:33:17.729Z,3.67
2023-01-17T02:38:34.000Z,3.72
2023-01-17T02:43:37.663Z,3.72
2023-01-17T02:48:40.162Z,3.69
2023-01-17T02:53:48.995Z,3.62
2023-01-17T02:59:14.172Z,3.54
2023-01-17T03:04:42.130Z,3.47
2023-01-17T03:09:47.088Z,3.31
2023-01-17T03:14:53.608Z,3.22
2023-01-17T03:19:56.720Z,3.16
2023-01-17T03:25:16.366Z,3.10
2023-01-17T03:30:23.121Z,3.06
2023-01-17T03:35:28.413Z,3.06
2023-01-17T03:40:37.847Z,3.05
2023-01-17T03:45:40.227Z,3.06
2023-01-17T03:50:43.685Z,3.12
2023-01-17T03:55:46.609Z,3.18
2023-01-17T04:00:49.806Z,3.23
2023-01-17T04:05:53.301Z,3.29
2023-01-17T04:10:55.316Z,3.31
2023-01-17T04:15:59.977Z,3.31
2023-01-17T04:21:02.612Z,3.25
2023-01-17T04:26:05.450Z,3.20
2023-01-17T04:31:07.874Z,3.17
2023-01-17T04:36:10.488Z,3.09
2023-01-17T04:41:12.556Z,3.01
2023-01-17T04:46:15.128Z,2.92
2023-01-17T04:51:18.228Z,2.86
2023-01-17T04:56:20.228Z,2.88
2023-01-17T05:01:22.708Z,2.84
2023-01-17T05:06:25.655Z,2.80
2023-01-17T05:11:30.446Z,2.78
2023-01-17T05:16:32.784Z,2.74
2023-01-17T05:21:35.298Z,2.71
2023-01-17T05:26:38.204Z,2.74
2023-01-17T05:31:40.725Z,2.74
2023-01-17T05:36:42.829Z,2.80
2023-01-17T05:41:45.758Z,2.88
2023-01-17T05:46:49.783Z,2.92
2023-01-17T05:51:54.831Z,2.87
2023-01-17T05:56:57.070Z,2.85
2023-01-17T06:01:59.045Z,2.86
2023-01-17T06:07:03.356Z,2.86
2023-01-17T06:12:06.342Z,2.90
2023-01-17T06:17:08.264Z,2.95
2023-01-17T06:22:10.399Z,2.99
2023-01-17T06:27:15.359Z,3.04
2023-01-17T06:32:17.386Z,3.13
2023-01-17T06:37:19.790Z,3.12
2023-01-17T06:42:22.245Z,3.09
2023-01-17T06:47:24.436Z,3.08
2023-01-17T06:52:30.256Z,3.09
2023-01-17T06:57:33.093Z,3.13
2023-01-17T07:02:37.110Z,3.10
2023-01-17T07:07:39.220Z,3.16
2023-01-17T07:12:46.962Z,3.21
2023-01-17T07:17:49.487Z,3.25
2023-01-17T07:22:52.584Z,3.32
2023-01-17T07:27:57.600Z,3.37
2023-01-17T07:33:00.392Z,3.38
2023-01-17T07:38:03.741Z,3.44
2023-01-17T07:43:17.308Z,3.47
2023-01-17T07:48:21.996Z,3.55
2023-01-17T07:53:30.779Z,3.61
2023-01-17T07:58:34.882Z,3.67
2023-01-17T08:03:40.666Z,3.80
2023-01-17T08:08:43.260Z,3.93
2023-01-17T08:13:48.396Z,4.00
2023-01-17T08:18:56.464Z,4.08
2023-01-17T08:24:15.411Z,4.18
2023-01-17T08:29:19.244Z,4.29
2023-01-17T08:34:23.843Z,4.42
2023-01-17T08:39:31.633Z,4.52
2023-01-17T08:44:34.704Z,4.65
2023-01-17T08:49:44.943Z,4.71
2023-01-17T08:54:53.865Z,4.78
2023-01-17T09:00:14.765Z,4.88
2023-01-17T09:05:17.029Z,4.99
2023-01-17T09:10:19.698Z,5.10
2023-01-17T09:15:26.690Z,5.19
2023-01-17T09:20:30.890Z,5.28
2023-01-17T09:25:33.077Z,5.38
2023-01-17T09:30:38.035Z,5.46
2023-01-17T09:35:40.724Z,5.52
2023-01-17T09:40:47.396Z,5.52
2023-01-17T09:45:50.252Z,5.56
2023-01-17T09:51:04.492Z,5.63
2023-01-17T09:56:31.423Z,5.71
2023-01-17T10:02:31.839Z,5.81
2023-01-17T10:08:04.774Z,5.96
2023-01-17T10:13:27.748Z,6.18
2023-01-17T10:18:55.615Z,6.35
2023-01-17T10:24:28.455Z,6.57
2023-01-17T10:29:36.987Z,6.62
2023-01-17T10:34:58.249Z,6.72
2023-01-17T10:40:38.471Z,6.82
2023-01-17T10:45:56.372Z,6.91
2023-01-17T10:51:43.092Z,7.02
2023-01-17T10:56:53.268Z,7.19
2023-01-17T11:01:55.973Z,7.35
2023-01-17T11:07:30.745Z,7.47
2023-01-17T11:12:45.517Z,7.57
2023-01-17T11:17:53.388Z,7.77
2023-01-17T11:23:05.948Z,7.80
2023-01-17T11:28:20.252Z,7.84
2023-01-17T11:34:13.970Z,7.88
2023-01-17T11:39:27.889Z,7.96
2023-01-17T11:44:35.095Z,8.09
2023-01-17T11:49:38.982Z,8.17
2023-01-17T11:54:47.962Z,8.15
2023-01-17T12:00:38.297Z,8.22
2023-01-17T12:05:43.193Z,8.35
2023-01-17T12:11:17.098Z,8.41
2023-01-17T12:16:53.538Z,8.36
2023-01-17T12:22:04.138Z,8.33
2023-01-17T12:27:34.604Z,8.33
2023-01-17T12:32:59.057Z,8.33
2023-01-17T12:38:09.166Z,8.28
2023-01-17T12:43:23.033Z,8.26
2023-01-17T12:48:30.882Z,8.17
2023-01-17T12:53:59.927Z,8.14
2023-01-17T12:59:27.964Z,8.20
2023-01-17T13:04:46.914Z,8.23
2023-01-17T13:10:26.957Z,8.23
2023-01-17T13:15:39.249Z,8.24
2023-01-17T13:21:05.282Z,8.24
2023-01-17T13:26:20.838Z,8.22
2023-01-17T13:31:50.874Z,8.21
2023-01-17T13:37:23.236Z,8.11
2023-01-17T13:42:42.495Z,8.04
2023-01-17T13:47:45.495Z,7.91
2023-01-17T13:52:50.797Z,7.75
2023-01-17T13:57:53.196Z,7.60
2023-01-17T14:02:55.676Z,7.52
2023-01-17T14:08:02.236Z,7.45
2023-01-17T14:13:06.870Z,7.42
2023-01-17T14:18:34.066Z,7.38
2023-01-17T14:24:15.978Z,7.29
2023-01-17T14:29:58.975Z,7.21
2023-01-17T14:35:02.273Z,7.09
2023-01-17T14:40:18.223Z,6.96
2023-01-17T14:45:26.851Z,6.83
2023-01-17T14:50:35.974Z,6.71
2023-01-17T14:55:39.080Z,6.53
2023-01-17T15:00:45.175Z,6.33
2023-01-17T15:05:52.250Z,6.17
2023-01-17T15:11:05.445Z,6.00
2023-01-17T15:16:24.406Z,5.87
2023-01-17T15:21:29.720Z,5.73
2023-01-17T15:26:34.767Z,5.60
2023-01-17T15:31:48.108Z,5.50
2023-01-17T15:36:51.166Z,5.41
2023-01-17T15:41:59.332Z,5.34
2023-01-17T15:47:02.496Z,5.26
2023-01-17T15:52:10.324Z,5.14
2023-01-17T15:57:24.765Z,5.04
2023-01-17T16:02:29.633Z,4.91
2023-01-17T16:07:36.207Z,4.77
2023-01-17T16:12:39.298Z,4.66
2023-01-17T16:17:48.052Z,4.54
2023-01-17T16:22:50.861Z,4.43
2023-01-17T16:27:53.284Z,4.26
2023-01-17T16:33:00.066Z,4.18
2023-01-17T16:38:15.532Z,4.09
2023-01-17T16:43:18.931Z,3.96
2023-01-17T16:48:21.960Z,3.93
2023-01-17T16:53:26.976Z,3.95
2023-01-17T16:58:28.826Z,3.98
2023-01-17T17:03:30.906Z,4.07
2023-01-17T17:08:37.106Z,4.17
2023-01-17T17:13:40.672Z,4.20
2023-01-17T17:18:44.883Z,4.21
2023-01-17T17:23:50.911Z,4.19
2023-01-17T17:28:54.152Z,4.17
2023-01-17T17:34:00.929Z,4.15
2023-01-17T17:39:04.790Z,4.14
2023-01-17T17:44:06.782Z,4.15
2023-01-17T17:49:09.199Z,4.19
2023-01-17T17:54:13.280Z,4.22
2023-01-17T17:59:18.497Z,4.28
2023-01-17T18:04:21.714Z,4.32
2023-01-17T18:09:24.273Z,4.34
2023-01-17T18:14:26.710Z,4.37
2023-01-17T18:19:28.812Z,4.40
2023-01-17T18:24:31.114Z,4.42
2023-01-17T18:29:33.253Z,4.44
2023-01-17T18:34:35.846Z,4.44
2023-01-17T18:39:37.871Z,4.42
2023-01-17T18:44:39.968Z,4.37
2023-01-17T18:49:43.047Z,4.34
2023-01-17T18:54:46.131Z,4.30
2023-01-17T18:59:48.283Z,4.26
2023-01-17T19:04:50.095Z,4.23
2023-01-17T19:09:51.958Z,4.23
2023-01-17T19:14:53.860Z,4.24
2023-01-17T19:19:57.115Z,4.26
2023-01-17T19:24:59.016Z,4.23
2023-01-17T19:30:01.566Z,4.18
2023-01-17T19:35:03.623Z,4.17
2023-01-17T19:40:08.406Z,4.15
2023-01-17T19:45:14.101Z,4.10
2023-01-17T19:50:18.698Z,4.05
2023-01-17T19:55:25.648Z,4.01
2023-01-17T20:00:30.372Z,3.90
2023-01-17T20:05:34.242Z,3.93
2023-01-17T20:10:36.042Z,3.88
2023-01-17T20:15:37.843Z,3.85
2023-01-17T20:20:56.314Z,3.86
2023-01-17T20:25:59.221Z,3.80
2023-01-17T20:31:10.309Z,3.84
2023-01-17T20:36:16.094Z,3.81
2023-01-17T20:41:25.714Z,3.78
2023-01-17T20:46:33.215Z,3.78
2023-01-17T20:51:37.685Z,3.78
2023-01-17T20:56:39.473Z,3.81
2023-01-17T21:01:43.790Z,3.84
2023-01-17T21:06:46.276Z,3.86
2023-01-17T21:11:48.939Z,3.89
2023-01-17T21:16:50.884Z,3.91
2023-01-17T21:21:53.083Z,3.90
2023-01-17T21:26:55.140Z,3.82
2023-01-17T21:31:57.400Z,3.91
2023-01-17T21:36:59.366Z,3.95
2023-01-17T21:42:01.420Z,3.98
2023-01-17T21:47:03.772Z,4.05
2023-01-17T21:52:05.630Z,4.12
2023-01-17T21:57:26.563Z,4.12
2023-01-17T22:02:28.451Z,4.19
2023-01-17T22:07:30.959Z,4.21
2023-01-17T22:12:33.152Z,4.25
2023-01-17T22:17:38.312Z,4.28
2023-01-17T22:22:40.259Z,4.39
2023-01-17T22:27:42.074Z,4.44
2023-01-17T22:32:43.919Z,4.42
2023-01-17T22:37:45.835Z,4.52
2023-01-17T22:42:48.131Z,4.59
2023-01-17T22:47:50.299Z,4.62
2023-01-17T22:52:52.137Z,4.63
2023-01-17T22:57:54.669Z,4.71
2023-01-17T23:02:56.914Z,4.72
2023-01-17T23:08:02.075Z,4.79
2023-01-17T23:13:04.303Z,4.90
2023-01-17T23:18:24.824Z,4.95
2023-01-17T23:23:26.940Z,5.00
2023-01-17T23:28:28.938Z,5.04
2023-01-17T23:33:31.025Z,5.11
2023-01-17T23:38:37.937Z,5.15
2023-01-17T23:43:40.182Z,5.13
2023-01-17T23:48:41.914Z,5.12
2023-01-17T23:53:43.830Z,5.15
2023-01-17T23:58:45.700Z,5.15
